createdAt,value
2022-09-13T05:20:53.918Z,19.20
2022-09-13T05:25:57.069Z,19.10
2022-09-13T05:31:01.160Z,19.10
2022-09-13T05:36:04.280Z,19.10
2022-09-13T05:41:06.644Z,19.00
2022-09-13T05:46:11.961Z,19.10
2022-09-13T05:51:19.154Z,19.10
2022-09-13T05:56:23.764Z,19.00
2022-09-13T06:01:27.874Z,19.10
2022-09-13T06:06:29.731Z,19.10
2022-09-13T06:11:32.005Z,19.00
2022-09-13T06:16:33.948Z,19.10
2022-09-13T06:21:35.928Z,19.10
2022-09-13T06:26:37.746Z,19.10
2022-09-13T06:31:43.789Z,19.10
2022-09-13T06:36:45.608Z,19.10
2022-09-13T06:41:47.995Z,19.20
2022-09-13T06:46:49.774Z,19.20
2022-09-13T06:51:51.562Z,19.20
2022-09-13T06:56:53.647Z,19.20
2022-09-13T07:02:00.695Z,19.20
2022-09-13T07:07:02.553Z,19.20
2022-09-13T07:12:05.605Z,19.30
2022-09-13T07:17:07.433Z,19.40
2022-09-13T07:22:09.303Z,19.40
2022-09-13T07:27:11.111Z,19.50
2022-09-13T07:32:12.980Z,19.60
2022-09-13T07:37:14.751Z,19.60
2022-09-13T07:42:16.543Z,19.70
2022-09-13T07:47:18.473Z,19.90
2022-09-13T07:52:20.242Z,20.00
2022-09-13T07:57:23.924Z,20.00
2022-09-13T08:02:25.766Z,20.10
2022-09-13T08:07:27.656Z,20.20
2022-09-13T08:12:29.425Z,20.40
2022-09-13T08:17:31.213Z,20.40
2022-09-13T08:22:33.052Z,20.50
2022-09-13T08:27:34.846Z,20.60
2022-09-13T08:32:36.647Z,20.70
2022-09-13T08:37:38.418Z,20.80
2022-09-13T08:42:48.767Z,20.90
2022-09-13T08:47:55.072Z,20.90
2022-09-13T08:53:00.008Z,21.00
2022-09-13T08:58:13.853Z,21.10
2022-09-13T09:03:35.422Z,21.20
2022-09-13T09:08:43.185Z,21.30
2022-09-13T09:13:52.496Z,21.40
2022-09-13T09:18:56.140Z,21.50
2022-09-13T09:23:59.592Z,21.60
2022-09-13T09:29:28.271Z,21.70
2022-09-13T09:34:42.704Z,21.90
2022-09-13T09:39:44.836Z,22.00
2022-09-13T09:44:49.942Z,22.10
2022-09-13T09:50:10.638Z,22.20
2022-09-13T09:55:28.466Z,22.30
2022-09-13T10:00:35.152Z,22.40
2022-09-13T10:05:36.969Z,22.60
2022-09-13T10:10:42.927Z,22.70
2022-09-13T10:16:03.257Z,22.70
2022-09-13T10:21:07.841Z,22.80
2022-09-13T10:26:12.463Z,22.80
2022-09-13T10:31:17.550Z,22.90
2022-09-13T10:36:50.555Z,22.90
2022-09-13T10:41:58.829Z,23.00
2022-09-13T10:47:12.940Z,23.10
2022-09-13T10:52:28.965Z,23.20
2022-09-13T10:57:34.844Z,23.30
2022-09-13T11:02:59.844Z,23.30
2022-09-13T11:08:23.666Z,23.20
2022-09-13T11:13:37.670Z,23.10
2022-09-13T11:18:48.209Z,23.20
2022-09-13T11:24:21.199Z,23.40
2022-09-13T11:29:44.787Z,23.70
2022-09-13T11:35:04.912Z,24.00
2022-09-13T11:40:29.903Z,24.10
2022-09-13T11:45:36.373Z,24.00
2022-09-13T11:50:39.877Z,24.30
2022-09-13T11:55:46.021Z,24.40
2022-09-13T12:00:54.476Z,24.40
2022-09-13T12:06:01.941Z,24.30
2022-09-13T12:11:28.996Z,24.30
2022-09-13T12:16:38.198Z,24.50
2022-09-13T12:21:41.895Z,24.90
2022-09-13T12:26:54.810Z,25.30
2022-09-13T12:32:03.082Z,25.80
2022-09-13T12:37:27.359Z,26.00
2022-09-13T12:42:46.339Z,25.90
2022-09-13T12:48:13.829Z,25.80
2022-09-13T12:53:26.206Z,25.70
2022-09-13T12:59:12.965Z,25.70
2022-09-13T13:04:24.341Z,25.80
2022-09-13T13:09:29.321Z,25.90
2022-09-13T13:14:31.155Z,25.70
2022-09-13T13:19:34.174Z,25.60
2022-09-13T13:24:39.529Z,25.60
2022-09-13T13:29:41.335Z,25.60
2022-09-13T13:34:49.511Z,25.60
2022-09-13T13:40:26.082Z,25.50
2022-09-13T13:45:28.352Z,25.40
2022-09-13T13:50:30.201Z,25.20
2022-09-13T13:55:44.695Z,25.20
2022-09-13T14:00:49.559Z,25.10
2022-09-13T14:06:13.077Z,24.90
2022-09-13T14:11:17.986Z,24.70
2022-09-13T14:30:05.882Z,24.50
2022-09-13T14:42:21.646Z,24.40
2022-09-13T14:47:31.033Z,24.40
2022-09-13T14:52:38.683Z,24.30
2022-09-13T14:57:46.576Z,24.30
2022-09-13T15:02:51.155Z,24.20
2022-09-13T15:07:53.051Z,24.10
2022-09-13T15:12:58.024Z,24.00
2022-09-13T15:18:23.941Z,23.90
2022-09-13T15:23:34.558Z,23.90
2022-09-13T15:34:21.832Z,23.80
2022-09-13T15:39:24.239Z,23.70
2022-09-13T15:44:42.682Z,23.70
2022-09-13T15:49:50.941Z,23.60
2022-09-13T15:54:53.085Z,23.50
2022-09-13T16:00:02.625Z,23.40
2022-09-13T16:05:08.881Z,23.30
2022-09-13T16:10:15.456Z,23.20
2022-09-13T16:15:32.818Z,23.10
2022-09-13T16:20:59.967Z,23.00
2022-09-13T16:43:49.689Z,22.70
2022-09-13T17:01:18.315Z,22.40
2022-09-13T17:06:20.984Z,22.20
2022-09-13T17:11:27.251Z,22.00
2022-09-13T17:16:43.259Z,21.70
2022-09-13T17:21:46.812Z,21.60
2022-09-13T17:26:48.945Z,21.50
2022-09-13T17:31:51.834Z,21.50
2022-09-13T17:36:55.273Z,21.40
2022-09-13T17:41:58.060Z,21.30
2022-09-13T17:58:12.998Z,21.10
2022-09-13T18:03:29.002Z,20.90
2022-09-13T18:08:34.079Z,20.80
2022-09-13T18:13:50.607Z,20.70
